sensor_id;sensor_type;location;lat;lon;timestamp;pressure;altitude;pressure_sealevel;temperature
69186;BMP280;56298;49.246;9.410;2024-02-21T00:00:36;100432.75;;;8.59
69186;BMP280;56298;49.246;9.410;2024-02-21T00:03:03;100436.09;;;8.56
69186;BMP280;56298;49.246;9.410;2024-02-21T00:05:29;100426.44;;;8.59
69186;BMP280;56298;49.246;9.410;2024-02-21T00:07:54;100426.28;;;8.55
69186;BMP280;56298;49.246;9.410;2024-02-21T00:10:20;100430.16;;;8.63
69186;BMP280;56298;49.246;9.410;2024-02-21T00:12:45;100421.34;;;8.66
69186;BMP280;56298;49.246;9.410;2024-02-21T00:15:11;100417.78;;;8.66
69186;BMP280;56298;49.246;9.410;2024-02-21T00:17:36;100415.44;;;8.73
69186;BMP280;56298;49.246;9.410;2024-02-21T00:20:01;100419.94;;;8.69
69186;BMP280;56298;49.246;9.410;2024-02-21T00:22:26;100411.38;;;8.70
69186;BMP280;56298;49.246;9.410;2024-02-21T00:24:54;100400.44;;;8.70
69186;BMP280;56298;49.246;9.410;2024-02-21T00:27:19;100384.22;;;8.74
69186;BMP280;56298;49.246;9.410;2024-02-21T00:29:44;100382.41;;;8.60
69186;BMP280;56298;49.246;9.410;2024-02-21T00:32:09;100381.44;;;8.65
69186;BMP280;56298;49.246;9.410;2024-02-21T00:34:35;100378.38;;;8.67
69186;BMP280;56298;49.246;9.410;2024-02-21T00:37:00;100366.91;;;8.56
69186;BMP280;56298;49.246;9.410;2024-02-21T00:39:26;100373.81;;;8.53
69186;BMP280;56298;49.246;9.410;2024-02-21T00:41:51;100368.50;;;8.48
69186;BMP280;56298;49.246;9.410;2024-02-21T00:44:16;100372.03;;;8.48
69186;BMP280;56298;49.246;9.410;2024-02-21T00:46:42;100365.91;;;8.52
69186;BMP280;56298;49.246;9.410;2024-02-21T00:49:07;100364.63;;;8.49
69186;BMP280;56298;49.246;9.410;2024-02-21T00:51:32;100367.06;;;8.51
69186;BMP280;56298;49.246;9.410;2024-02-21T00:53:57;100369.97;;;8.54
69186;BMP280;56298;49.246;9.410;2024-02-21T00:56:23;100364.19;;;8.56
69186;BMP280;56298;49.246;9.410;2024-02-21T00:58:48;100361.44;;;8.56
69186;BMP280;56298;49.246;9.410;2024-02-21T01:01:21;100356.63;;;8.53
69186;BMP280;56298;49.246;9.410;2024-02-21T01:03:46;100358.06;;;8.50
69186;BMP280;56298;49.246;9.410;2024-02-21T01:06:11;100349.88;;;8.50
69186;BMP280;56298;49.246;9.410;2024-02-21T01:08:36;100351.94;;;8.53
69186;BMP280;56298;49.246;9.410;2024-02-21T01:11:02;100355.97;;;8.56
69186;BMP280;56298;49.246;9.410;2024-02-21T01:13:27;100346.84;;;8.60
69186;BMP280;56298;49.246;9.410;2024-02-21T01:15:52;100344.00;;;8.43
69186;BMP280;56298;49.246;9.410;2024-02-21T01:18:17;100337.63;;;8.47
69186;BMP280;56298;49.246;9.410;2024-02-21T01:20:43;100326.19;;;8.45
69186;BMP280;56298;49.246;9.410;2024-02-21T01:23:08;100330.72;;;8.50
69186;BMP280;56298;49.246;9.410;2024-02-21T01:25:33;100322.69;;;8.54
69186;BMP280;56298;49.246;9.410;2024-02-21T01:27:58;100324.91;;;8.52
69186;BMP280;56298;49.246;9.410;2024-02-21T01:30:24;100314.25;;;8.41
69186;BMP280;56298;49.246;9.410;2024-02-21T01:32:49;100310.72;;;8.41
69186;BMP280;56298;49.246;9.410;2024-02-21T01:35:14;100310.50;;;8.28
69186;BMP280;56298;49.246;9.410;2024-02-21T01:37:40;100309.50;;;8.24
69186;BMP280;56298;49.246;9.410;2024-02-21T01:40:05;100308.66;;;8.15
69186;BMP280;56298;49.246;9.410;2024-02-21T01:42:31;100308.06;;;8.18
69186;BMP280;56298;49.246;9.410;2024-02-21T01:44:56;100308.34;;;8.16
69186;BMP280;56298;49.246;9.410;2024-02-21T01:47:21;100292.19;;;8.29
69186;BMP280;56298;49.246;9.410;2024-02-21T01:49:47;100301.38;;;8.33
69186;BMP280;56298;49.246;9.410;2024-02-21T01:52:14;100291.94;;;8.39
69186;BMP280;56298;49.246;9.410;2024-02-21T01:54:39;100293.38;;;8.45
69186;BMP280;56298;49.246;9.410;2024-02-21T01:57:05;100281.44;;;8.41
69186;BMP280;56298;49.246;9.410;2024-02-21T01:59:30;100283.59;;;8.53
69186;BMP280;56298;49.246;9.410;2024-02-21T02:01:56;100278.00;;;8.58
69186;BMP280;56298;49.246;9.410;2024-02-21T02:04:22;100276.97;;;8.45
69186;BMP280;56298;49.246;9.410;2024-02-21T02:06:48;100277.75;;;8.37
69186;BMP280;56298;49.246;9.410;2024-02-21T02:09:14;100272.88;;;8.25
69186;BMP280;56298;49.246;9.410;2024-02-21T02:11:39;100280.41;;;8.19
69186;BMP280;56298;49.246;9.410;2024-02-21T02:14:04;100284.06;;;8.15
69186;BMP280;56298;49.246;9.410;2024-02-21T02:16:30;100288.97;;;8.04
69186;BMP280;56298;49.246;9.410;2024-02-21T02:18:55;100293.84;;;8.07
69186;BMP280;56298;49.246;9.410;2024-02-21T02:21:26;100287.38;;;8.03
69186;BMP280;56298;49.246;9.410;2024-02-21T02:23:52;100287.97;;;8.00
69186;BMP280;56298;49.246;9.410;2024-02-21T02:26:17;100289.09;;;7.99
69186;BMP280;56298;49.246;9.410;2024-02-21T02:28:42;100288.94;;;7.95
69186;BMP280;56298;49.246;9.410;2024-02-21T02:31:07;100279.44;;;7.92
69186;BMP280;56298;49.246;9.410;2024-02-21T02:33:33;100276.31;;;7.85
69186;BMP280;56298;49.246;9.410;2024-02-21T02:35:58;100272.97;;;7.88
69186;BMP280;56298;49.246;9.410;2024-02-21T02:38:24;100259.28;;;7.79
69186;BMP280;56298;49.246;9.410;2024-02-21T02:40:49;100259.28;;;7.79
69186;BMP280;56298;49.246;9.410;2024-02-21T02:43:14;100246.66;;;7.70
69186;BMP280;56298;49.246;9.410;2024-02-21T02:45:40;100238.44;;;7.61
69186;BMP280;56298;49.246;9.410;2024-02-21T02:48:06;100232.75;;;7.57
69186;BMP280;56298;49.246;9.410;2024-02-21T02:50:31;100236.31;;;7.58
69186;BMP280;56298;49.246;9.410;2024-02-21T02:52:56;100243.19;;;7.55
69186;BMP280;56298;49.246;9.410;2024-02-21T02:55:22;100231.81;;;7.62
69186;BMP280;56298;49.246;9.410;2024-02-21T02:57:47;100234.56;;;7.62
69186;BMP280;56298;49.246;9.410;2024-02-21T03:00:14;100237.63;;;7.60
69186;BMP280;56298;49.246;9.410;2024-02-21T03:02:41;100231.34;;;7.60
69186;BMP280;56298;49.246;9.410;2024-02-21T03:05:17;100217.56;;;7.65
69186;BMP280;56298;49.246;9.410;2024-02-21T03:07:43;100215.63;;;7.65
69186;BMP280;56298;49.246;9.410;2024-02-21T03:10:09;100216.59;;;7.61
69186;BMP280;56298;49.246;9.410;2024-02-21T03:12:34;100208.44;;;7.70
69186;BMP280;56298;49.246;9.410;2024-02-21T03:15:00;100207.97;;;7.68
69186;BMP280;56298;49.246;9.410;2024-02-21T03:17:25;100204.03;;;7.60
69186;BMP280;56298;49.246;9.410;2024-02-21T03:19:52;100203.28;;;7.68
69186;BMP280;56298;49.246;9.410;2024-02-21T03:22:17;100203.16;;;7.50
69186;BMP280;56298;49.246;9.410;2024-02-21T03:24:43;100199.69;;;7.36
69186;BMP280;56298;49.246;9.410;2024-02-21T03:27:08;100190.28;;;7.42
69186;BMP280;56298;49.246;9.410;2024-02-21T03:29:33;100188.63;;;7.41
69186;BMP280;56298;49.246;9.410;2024-02-21T03:31:59;100188.34;;;7.43
69186;BMP280;56298;49.246;9.410;2024-02-21T03:34:24;100189.88;;;7.49
69186;BMP280;56298;49.246;9.410;2024-02-21T03:36:49;100196.28;;;7.53
69186;BMP280;56298;49.246;9.410;2024-02-21T03:39:14;100199.25;;;7.43
69186;BMP280;56298;49.246;9.410;2024-02-21T03:41:40;100200.63;;;7.54
69186;BMP280;56298;49.246;9.410;2024-02-21T03:44:05;100189.16;;;7.66
69186;BMP280;56298;49.246;9.410;2024-02-21T03:46:30;100180.53;;;7.73
69186;BMP280;56298;49.246;9.410;2024-02-21T03:48:56;100169.41;;;7.69
69186;BMP280;56298;49.246;9.410;2024-02-21T03:51:22;100168.97;;;7.76
69186;BMP280;56298;49.246;9.410;2024-02-21T03:53:47;100161.44;;;7.73
69186;BMP280;56298;49.246;9.410;2024-02-21T03:56:12;100157.69;;;7.69
69186;BMP280;56298;49.246;9.410;2024-02-21T03:58:37;100159.97;;;7.75
69186;BMP280;56298;49.246;9.410;2024-02-21T04:01:03;100161.88;;;7.75
69186;BMP280;56298;49.246;9.410;2024-02-21T04:03:29;100147.13;;;7.76
69186;BMP280;56298;49.246;9.410;2024-02-21T04:05:54;100149.06;;;7.75
69186;BMP280;56298;49.246;9.410;2024-02-21T04:08:20;100150.66;;;7.76
69186;BMP280;56298;49.246;9.410;2024-02-21T04:10:45;100150.84;;;7.80
69186;BMP280;56298;49.246;9.410;2024-02-21T04:13:10;100139.25;;;7.74
69186;BMP280;56298;49.246;9.410;2024-02-21T04:15:35;100140.22;;;7.78
69186;BMP280;56298;49.246;9.410;2024-02-21T04:18:01;100139.47;;;7.55
69186;BMP280;56298;49.246;9.410;2024-02-21T04:20:28;100136.13;;;7.58
69186;BMP280;56298;49.246;9.410;2024-02-21T04:22:53;100134.59;;;7.43
69186;BMP280;56298;49.246;9.410;2024-02-21T04:25:18;100138.13;;;7.44
69186;BMP280;56298;49.246;9.410;2024-02-21T04:27:44;100139.34;;;7.37
69186;BMP280;56298;49.246;9.410;2024-02-21T04:30:10;100144.38;;;7.21
69186;BMP280;56298;49.246;9.410;2024-02-21T04:32:35;100150.06;;;7.25
69186;BMP280;56298;49.246;9.410;2024-02-21T04:35:00;100153.53;;;7.25
69186;BMP280;56298;49.246;9.410;2024-02-21T04:37:26;100139.13;;;7.25
69186;BMP280;56298;49.246;9.410;2024-02-21T04:39:51;100138.44;;;7.19
69186;BMP280;56298;49.246;9.410;2024-02-21T04:42:17;100144.38;;;7.21
69186;BMP280;56298;49.246;9.410;2024-02-21T04:44:42;100137.25;;;7.11
69186;BMP280;56298;49.246;9.410;2024-02-21T04:47:07;100135.19;;;6.94
69186;BMP280;56298;49.246;9.410;2024-02-21T04:49:33;100140.19;;;7.01
69186;BMP280;56298;49.246;9.410;2024-02-21T04:51:58;100146.09;;;6.94
69186;BMP280;56298;49.246;9.410;2024-02-21T04:54:24;100144.84;;;7.01
69186;BMP280;56298;49.246;9.410;2024-02-21T04:56:49;100132.50;;;7.03
69186;BMP280;56298;49.246;9.410;2024-02-21T04:59:14;100133.00;;;7.05
69186;BMP280;56298;49.246;9.410;2024-02-21T05:01:40;100133.94;;;7.01
69186;BMP280;56298;49.246;9.410;2024-02-21T05:04:05;100128.00;;;6.98
69186;BMP280;56298;49.246;9.410;2024-02-21T05:06:30;100124.03;;;7.05
69186;BMP280;56298;49.246;9.410;2024-02-21T05:08:56;100121.50;;;7.08
69186;BMP280;56298;49.246;9.410;2024-02-21T05:11:23;100101.81;;;7.11
69186;BMP280;56298;49.246;9.410;2024-02-21T05:13:48;100099.50;;;7.05
69186;BMP280;56298;49.246;9.410;2024-02-21T05:16:13;100099.28;;;7.01
69186;BMP280;56298;49.246;9.410;2024-02-21T05:18:40;100092.28;;;6.86
69186;BMP280;56298;49.246;9.410;2024-02-21T05:21:05;100090.41;;;6.73
69186;BMP280;56298;49.246;9.410;2024-02-21T05:23:31;100087.91;;;6.62
69186;BMP280;56298;49.246;9.410;2024-02-21T05:25:56;100092.38;;;6.58
69186;BMP280;56298;49.246;9.410;2024-02-21T05:28:21;100092.06;;;6.46
69186;BMP280;56298;49.246;9.410;2024-02-21T05:30:46;100089.38;;;6.32
69186;BMP280;56298;49.246;9.410;2024-02-21T05:33:12;100087.94;;;6.34
69186;BMP280;56298;49.246;9.410;2024-02-21T05:35:38;100094.50;;;6.33
69186;BMP280;56298;49.246;9.410;2024-02-21T05:38:03;100094.94;;;6.26
69186;BMP280;56298;49.246;9.410;2024-02-21T05:40:36;100090.81;;;6.29
69186;BMP280;56298;49.246;9.410;2024-02-21T05:43:01;100091.19;;;6.22
69186;BMP280;56298;49.246;9.410;2024-02-21T05:45:27;100070.50;;;6.21
69186;BMP280;56298;49.246;9.410;2024-02-21T05:47:52;100066.97;;;6.21
69186;BMP280;56298;49.246;9.410;2024-02-21T05:50:17;100072.91;;;6.23
69186;BMP280;56298;49.246;9.410;2024-02-21T05:52:42;100084.84;;;6.27
69186;BMP280;56298;49.246;9.410;2024-02-21T05:55:08;100071.50;;;6.25
69186;BMP280;56298;49.246;9.410;2024-02-21T05:57:34;100084.84;;;6.27
69186;BMP280;56298;49.246;9.410;2024-02-21T05:59:59;100069.41;;;6.22
69186;BMP280;56298;49.246;9.410;2024-02-21T06:02:25;100066.69;;;6.22
69186;BMP280;56298;49.246;9.410;2024-02-21T06:04:50;100065.50;;;6.14
69186;BMP280;56298;49.246;9.410;2024-02-21T06:07:15;100078.47;;;6.18
69186;BMP280;56298;49.246;9.410;2024-02-21T06:09:40;100072.25;;;6.17
69186;BMP280;56298;49.246;9.410;2024-02-21T06:12:06;100077.28;;;6.10
69186;BMP280;56298;49.246;9.410;2024-02-21T06:14:31;100079.50;;;6.08
69186;BMP280;56298;49.246;9.410;2024-02-21T06:17:32;100077.75;;;6.12
69186;BMP280;56298;49.246;9.410;2024-02-21T06:19:57;100073.44;;;6.11
69186;BMP280;56298;49.246;9.410;2024-02-21T06:22:22;100077.66;;;6.03
69186;BMP280;56298;49.246;9.410;2024-02-21T06:24:47;100076.44;;;6.09
69186;BMP280;56298;49.246;9.410;2024-02-21T06:27:13;100068.28;;;6.09
69186;BMP280;56298;49.246;9.410;2024-02-21T06:29:41;100065.38;;;6.06
69186;BMP280;56298;49.246;9.410;2024-02-21T06:32:06;100065.28;;;6.11
69186;BMP280;56298;49.246;9.410;2024-02-21T06:34:31;100064.97;;;6.12
69186;BMP280;56298;49.246;9.410;2024-02-21T06:36:57;100064.56;;;6.19
69186;BMP280;56298;49.246;9.410;2024-02-21T06:39:22;100060.94;;;6.24
69186;BMP280;56298;49.246;9.410;2024-02-21T06:41:48;100061.50;;;6.35
69186;BMP280;56298;49.246;9.410;2024-02-21T06:44:15;100061.50;;;6.49
69186;BMP280;56298;49.246;9.410;2024-02-21T06:46:40;100063.38;;;6.62
69186;BMP280;56298;49.246;9.410;2024-02-21T06:49:05;100054.38;;;6.76
69186;BMP280;56298;49.246;9.410;2024-02-21T06:51:31;100056.03;;;6.86
69186;BMP280;56298;49.246;9.410;2024-02-21T06:53:57;100053.41;;;6.94
69186;BMP280;56298;49.246;9.410;2024-02-21T06:56:23;100047.56;;;7.10
69186;BMP280;56298;49.246;9.410;2024-02-21T06:58:52;100048.75;;;7.27
69186;BMP280;56298;49.246;9.410;2024-02-21T07:01:17;100048.38;;;7.42
69186;BMP280;56298;49.246;9.410;2024-02-21T07:03:42;100042.34;;;7.63
69186;BMP280;56298;49.246;9.410;2024-02-21T07:06:07;100039.72;;;7.80
69186;BMP280;56298;49.246;9.410;2024-02-21T07:08:33;100042.66;;;7.93
69186;BMP280;56298;49.246;9.410;2024-02-21T07:10:58;100036.84;;;7.94
69186;BMP280;56298;49.246;9.410;2024-02-21T07:13:23;100044.44;;;8.06
69186;BMP280;56298;49.246;9.410;2024-02-21T07:15:48;100030.13;;;8.10
69186;BMP280;56298;49.246;9.410;2024-02-21T07:18:15;100032.25;;;8.21
69186;BMP280;56298;49.246;9.410;2024-02-21T07:20:41;100018.75;;;8.25
69186;BMP280;56298;49.246;9.410;2024-02-21T07:23:08;100019.22;;;8.18
69186;BMP280;56298;49.246;9.410;2024-02-21T07:25:34;100019.69;;;8.12
69186;BMP280;56298;49.246;9.410;2024-02-21T07:27:59;100022.75;;;8.10
69186;BMP280;56298;49.246;9.410;2024-02-21T07:30:24;100018.75;;;8.16
69186;BMP280;56298;49.246;9.410;2024-02-21T07:32:50;100017.63;;;8.44
69186;BMP280;56298;49.246;9.410;2024-02-21T07:35:17;100022.94;;;8.75
69186;BMP280;56298;49.246;9.410;2024-02-21T07:37:42;100022.72;;;8.98
69186;BMP280;56298;49.246;9.410;2024-02-21T07:40:15;100020.25;;;9.14
69186;BMP280;56298;49.246;9.410;2024-02-21T07:42:41;100017.38;;;9.20
69186;BMP280;56298;49.246;9.410;2024-02-21T07:45:09;100023.84;;;9.45
69186;BMP280;56298;49.246;9.410;2024-02-21T07:47:35;100006.75;;;9.57
69186;BMP280;56298;49.246;9.410;2024-02-21T07:50:01;100010.81;;;9.51
69186;BMP280;56298;49.246;9.410;2024-02-21T07:52:27;100007.56;;;9.57
69186;BMP280;56298;49.246;9.410;2024-02-21T07:54:52;100003.22;;;9.56
69186;BMP280;56298;49.246;9.410;2024-02-21T07:57:18;99999.91;;;9.72
69186;BMP280;56298;49.246;9.410;2024-02-21T07:59:43;99996.72;;;9.91
69186;BMP280;56298;49.246;9.410;2024-02-21T08:02:08;99998.44;;;10.05
69186;BMP280;56298;49.246;9.410;2024-02-21T08:04:34;100002.28;;;10.04
69186;BMP280;56298;49.246;9.410;2024-02-21T08:06:59;100006.06;;;9.90
69186;BMP280;56298;49.246;9.410;2024-02-21T08:09:27;100006.25;;;9.85
69186;BMP280;56298;49.246;9.410;2024-02-21T08:11:54;100012.50;;;9.94
69186;BMP280;56298;49.246;9.410;2024-02-21T08:14:19;99999.63;;;9.95
69186;BMP280;56298;49.246;9.410;2024-02-21T08:16:44;100002.88;;;10.09
69186;BMP280;56298;49.246;9.410;2024-02-21T08:19:10;99995.84;;;10.21
69186;BMP280;56298;49.246;9.410;2024-02-21T08:21:36;99995.84;;;10.42
69186;BMP280;56298;49.246;9.410;2024-02-21T08:24:01;99999.75;;;10.75
69186;BMP280;56298;49.246;9.410;2024-02-21T08:26:26;99990.53;;;10.92
69186;BMP280;56298;49.246;9.410;2024-02-21T08:28:55;99999.72;;;11.08
69186;BMP280;56298;49.246;9.410;2024-02-21T08:31:20;99990.31;;;11.22
69186;BMP280;56298;49.246;9.410;2024-02-21T08:33:46;99990.66;;;11.33
69186;BMP280;56298;49.246;9.410;2024-02-21T08:36:18;99988.84;;;11.24
69186;BMP280;56298;49.246;9.410;2024-02-21T08:38:45;99991.59;;;11.24
69186;BMP280;56298;49.246;9.410;2024-02-21T08:41:10;99987.44;;;11.43
69186;BMP280;56298;49.246;9.410;2024-02-21T08:43:35;99992.88;;;11.80
69186;BMP280;56298;49.246;9.410;2024-02-21T08:46:01;99980.97;;;11.89
69186;BMP280;56298;49.246;9.410;2024-02-21T08:48:26;99968.13;;;11.64
69186;BMP280;56298;49.246;9.410;2024-02-21T08:50:51;99977.00;;;11.74
69186;BMP280;56298;49.246;9.410;2024-02-21T08:53:16;99979.75;;;11.74
69186;BMP280;56298;49.246;9.410;2024-02-21T08:55:42;99977.47;;;11.63
69186;BMP280;56298;49.246;9.410;2024-02-21T08:58:09;99973.28;;;11.53
69186;BMP280;56298;49.246;9.410;2024-02-21T09:00:34;99970.22;;;11.83
69186;BMP280;56298;49.246;9.410;2024-02-21T09:02:59;99973.09;;;11.87
69186;BMP280;56298;49.246;9.410;2024-02-21T09:05:25;99964.25;;;11.94
69186;BMP280;56298;49.246;9.410;2024-02-21T09:07:50;99965.88;;;11.82
69186;BMP280;56298;49.246;9.410;2024-02-21T09:10:15;99970.44;;;11.91
69186;BMP280;56298;49.246;9.410;2024-02-21T09:12:41;99963.19;;;11.98
69186;BMP280;56298;49.246;9.410;2024-02-21T09:15:06;99957.63;;;11.82
69186;BMP280;56298;49.246;9.410;2024-02-21T09:17:31;99953.34;;;11.97
69186;BMP280;56298;49.246;9.410;2024-02-21T09:19:57;99950.91;;;11.80
69186;BMP280;56298;49.246;9.410;2024-02-21T09:22:27;99950.44;;;11.78
69186;BMP280;56298;49.246;9.410;2024-02-21T09:24:53;99957.97;;;11.93
69186;BMP280;56298;49.246;9.410;2024-02-21T09:27:18;99951.13;;;11.75
69186;BMP280;56298;49.246;9.410;2024-02-21T09:29:43;99944.84;;;11.62
69186;BMP280;56298;49.246;9.410;2024-02-21T09:32:09;99942.84;;;11.87
69186;BMP280;56298;49.246;9.410;2024-02-21T09:34:34;99945.41;;;11.80
69186;BMP280;56298;49.246;9.410;2024-02-21T09:36:59;99939.91;;;12.08
69186;BMP280;56298;49.246;9.410;2024-02-21T09:39:24;99938.19;;;12.32
69186;BMP280;56298;49.246;9.410;2024-02-21T09:41:53;99938.19;;;12.48
69186;BMP280;56298;49.246;9.410;2024-02-21T09:44:22;99943.91;;;12.56
69186;BMP280;56298;49.246;9.410;2024-02-21T09:47:03;99942.47;;;12.46
69186;BMP280;56298;49.246;9.410;2024-02-21T09:49:34;99935.31;;;12.57
69186;BMP280;56298;49.246;9.410;2024-02-21T09:52:04;99928.47;;;12.67
69186;BMP280;56298;49.246;9.410;2024-02-21T09:54:34;99922.41;;;12.93
69186;BMP280;56298;49.246;9.410;2024-02-21T09:57:00;99916.84;;;13.25
69186;BMP280;56298;49.246;9.410;2024-02-21T09:59:32;99914.88;;;13.42
69186;BMP280;56298;49.246;9.410;2024-02-21T10:01:58;99917.25;;;13.24
69186;BMP280;56298;49.246;9.410;2024-02-21T10:04:25;99910.13;;;13.23
69186;BMP280;56298;49.246;9.410;2024-02-21T10:06:51;99907.16;;;13.32
69186;BMP280;56298;49.246;9.410;2024-02-21T10:09:23;99900.47;;;13.13
69186;BMP280;56298;49.246;9.410;2024-02-21T10:11:50;99900.28;;;13.42
69186;BMP280;56298;49.246;9.410;2024-02-21T10:14:16;99899.94;;;13.43
69186;BMP280;56298;49.246;9.410;2024-02-21T10:16:41;99904.56;;;13.59
69186;BMP280;56298;49.246;9.410;2024-02-21T10:19:16;99895.28;;;13.47
69186;BMP280;56298;49.246;9.410;2024-02-21T10:21:41;99888.97;;;13.47
69186;BMP280;56298;49.246;9.410;2024-02-21T10:24:07;99883.31;;;13.39
69186;BMP280;56298;49.246;9.410;2024-02-21T10:26:32;99874.78;;;13.64
69186;BMP280;56298;49.246;9.410;2024-02-21T10:28:57;99876.06;;;13.71
69186;BMP280;56298;49.246;9.410;2024-02-21T10:31:29;99876.66;;;13.60
69186;BMP280;56298;49.246;9.410;2024-02-21T10:34:01;99871.88;;;13.77
69186;BMP280;56298;49.246;9.410;2024-02-21T10:36:30;99873.81;;;13.76
69186;BMP280;56298;49.246;9.410;2024-02-21T10:38:55;99870.47;;;13.67
69186;BMP280;56298;49.246;9.410;2024-02-21T10:41:21;99863.38;;;13.46
69186;BMP280;56298;49.246;9.410;2024-02-21T10:43:52;99862.44;;;13.58
69186;BMP280;56298;49.246;9.410;2024-02-21T10:46:20;99853.75;;;13.36
69186;BMP280;56298;49.246;9.410;2024-02-21T10:48:47;99844.41;;;13.61
69186;BMP280;56298;49.246;9.410;2024-02-21T10:51:18;99842.88;;;13.63
69186;BMP280;56298;49.246;9.410;2024-02-21T10:56:32;99827.69;;;13.73
69186;BMP280;56298;49.246;9.410;2024-02-21T10:59:02;99825.13;;;13.84
69186;BMP280;56298;49.246;9.410;2024-02-21T11:01:28;99820.53;;;13.92
69186;BMP280;56298;49.246;9.410;2024-02-21T11:03:58;99823.84;;;13.78
69186;BMP280;56298;49.246;9.410;2024-02-21T11:06:25;99809.16;;;13.70
69186;BMP280;56298;49.246;9.410;2024-02-21T11:09:03;99805.78;;;13.80
69186;BMP280;56298;49.246;9.410;2024-02-21T11:11:30;99800.88;;;13.93
69186;BMP280;56298;49.246;9.410;2024-02-21T11:14:17;99797.63;;;13.64
69186;BMP280;56298;49.246;9.410;2024-02-21T11:16:43;99790.13;;;13.65
69186;BMP280;56298;49.246;9.410;2024-02-21T11:19:09;99783.88;;;13.68
69186;BMP280;56298;49.246;9.410;2024-02-21T11:21:36;99785.53;;;13.73
69186;BMP280;56298;49.246;9.410;2024-02-21T11:24:03;99781.03;;;13.84
69186;BMP280;56298;49.246;9.410;2024-02-21T11:26:29;99769.00;;;13.73
69186;BMP280;56298;49.246;9.410;2024-02-21T11:28:57;99770.50;;;13.90
69186;BMP280;56298;49.246;9.410;2024-02-21T11:31:22;99762.41;;;14.01
69186;BMP280;56298;49.246;9.410;2024-02-21T11:34:17;99763.44;;;14.16
69186;BMP280;56298;49.246;9.410;2024-02-21T11:36:47;99748.97;;;13.99
69186;BMP280;56298;49.246;9.410;2024-02-21T11:39:24;99742.34;;;14.04
69186;BMP280;56298;49.246;9.410;2024-02-21T11:42:03;99738.63;;;14.16
69186;BMP280;56298;49.246;9.410;2024-02-21T11:44:30;99738.41;;;14.28
69186;BMP280;56298;49.246;9.410;2024-02-21T11:46:55;99726.25;;;14.33
69186;BMP280;56298;49.246;9.410;2024-02-21T11:49:20;99726.72;;;14.38
69186;BMP280;56298;49.246;9.410;2024-02-21T11:51:46;99728.16;;;14.29
69186;BMP280;56298;49.246;9.410;2024-02-21T11:54:13;99723.50;;;14.33
69186;BMP280;56298;49.246;9.410;2024-02-21T11:56:42;99715.03;;;14.49
69186;BMP280;56298;49.246;9.410;2024-02-21T11:59:08;99710.84;;;14.62
69186;BMP280;56298;49.246;9.410;2024-02-21T12:01:34;99710.97;;;14.39
69186;BMP280;56298;49.246;9.410;2024-02-21T12:03:59;99696.06;;;13.90
69186;BMP280;56298;49.246;9.410;2024-02-21T12:06:24;99692.50;;;13.66
69186;BMP280;56298;49.246;9.410;2024-02-21T12:08:49;99684.44;;;13.77
69186;BMP280;56298;49.246;9.410;2024-02-21T12:11:22;99683.31;;;13.81
69186;BMP280;56298;49.246;9.410;2024-02-21T12:13:58;99687.41;;;13.91
69186;BMP280;56298;49.246;9.410;2024-02-21T12:16:24;99686.47;;;14.07
69186;BMP280;56298;49.246;9.410;2024-02-21T12:18:53;99680.19;;;14.37
69186;BMP280;56298;49.246;9.410;2024-02-21T12:21:18;99673.84;;;14.33
69186;BMP280;56298;49.246;9.410;2024-02-21T12:23:43;99671.81;;;14.60
69186;BMP280;56298;49.246;9.410;2024-02-21T12:26:08;99659.56;;;14.27
69186;BMP280;56298;49.246;9.410;2024-02-21T12:28:33;99662.88;;;14.09
69186;BMP280;56298;49.246;9.410;2024-02-21T12:30:59;99655.22;;;14.26
69186;BMP280;56298;49.246;9.410;2024-02-21T12:33:24;99649.22;;;14.51
69186;BMP280;56298;49.246;9.410;2024-02-21T12:35:49;99648.94;;;14.60
69186;BMP280;56298;49.246;9.410;2024-02-21T12:38:15;99641.41;;;14.57
69186;BMP280;56298;49.246;9.410;2024-02-21T12:40:40;99639.56;;;14.68
69186;BMP280;56298;49.246;9.410;2024-02-21T12:43:05;99636.44;;;14.70
69186;BMP280;56298;49.246;9.410;2024-02-21T12:45:30;99626.63;;;14.72
69186;BMP280;56298;49.246;9.410;2024-02-21T12:47:56;99617.00;;;14.62
69186;BMP280;56298;49.246;9.410;2024-02-21T12:50:21;99611.47;;;14.59
69186;BMP280;56298;49.246;9.410;2024-02-21T12:52:48;99617.28;;;14.84
69186;BMP280;56298;49.246;9.410;2024-02-21T12:55:14;99612.66;;;14.95
69186;BMP280;56298;49.246;9.410;2024-02-21T12:57:40;99586.91;;;14.88
69186;BMP280;56298;49.246;9.410;2024-02-21T13:00:06;99589.25;;;14.86
69186;BMP280;56298;49.246;9.410;2024-02-21T13:02:34;99589.81;;;14.61
69186;BMP280;56298;49.246;9.410;2024-02-21T13:04:59;99586.22;;;14.57
69186;BMP280;56298;49.246;9.410;2024-02-21T13:07:25;99581.13;;;14.62
69186;BMP280;56298;49.246;9.410;2024-02-21T13:09:50;99574.81;;;14.62
69186;BMP280;56298;49.246;9.410;2024-02-21T13:12:15;99568.47;;;14.58
69186;BMP280;56298;49.246;9.410;2024-02-21T13:14:41;99566.84;;;14.53
69186;BMP280;56298;49.246;9.410;2024-02-21T13:17:08;99558.63;;;14.57
69186;BMP280;56298;49.246;9.410;2024-02-21T13:19:34;99556.63;;;14.57
69186;BMP280;56298;49.246;9.410;2024-02-21T13:21:59;99551.22;;;14.64
69186;BMP280;56298;49.246;9.410;2024-02-21T13:24:24;99545.06;;;14.41
69186;BMP280;56298;49.246;9.410;2024-02-21T13:26:50;99535.19;;;14.39
69186;BMP280;56298;49.246;9.410;2024-02-21T13:29:15;99529.31;;;14.45
69186;BMP280;56298;49.246;9.410;2024-02-21T13:31:40;99521.06;;;14.48
69186;BMP280;56298;49.246;9.410;2024-02-21T13:34:06;99520.28;;;14.48
69186;BMP280;56298;49.246;9.410;2024-02-21T13:36:31;99506.44;;;14.41
69186;BMP280;56298;49.246;9.410;2024-02-21T13:38:57;99502.88;;;14.44
69186;BMP280;56298;49.246;9.410;2024-02-21T13:41:22;99506.44;;;14.44
69186;BMP280;56298;49.246;9.410;2024-02-21T13:43:48;99514.38;;;14.49
69186;BMP280;56298;49.246;9.410;2024-02-21T13:46:13;99519.88;;;14.49
69186;BMP280;56298;49.246;9.410;2024-02-21T13:48:38;99506.06;;;14.46
69186;BMP280;56298;49.246;9.410;2024-02-21T13:51:04;99498.16;;;14.44
69186;BMP280;56298;49.246;9.410;2024-02-21T13:53:29;99493.88;;;14.47
69186;BMP280;56298;49.246;9.410;2024-02-21T13:55:55;99484.47;;;14.51
69186;BMP280;56298;49.246;9.410;2024-02-21T13:58:20;99492.19;;;14.38
69186;BMP280;56298;49.246;9.410;2024-02-21T14:00:46;99473.34;;;14.44
69186;BMP280;56298;49.246;9.410;2024-02-21T14:03:11;99477.84;;;14.22
69186;BMP280;56298;49.246;9.410;2024-02-21T14:05:36;99474.75;;;14.27